Virginia City Highlands, Nevada
Current Conditions -  °F | °C
As of 3:55 AM on Saturday 25 Oct 2014 (Local Time) from KRNO Reporting Station
Broken Clouds Broken Clouds  
Wind Chill: 60°   Ceiling: 20000
Heat Index: 60°   Visibility: 10mi
Dew Point: 22°   Wind: 10mph
Humidity: 23%   Direction: 190°S
Pressure: 29.92"   Gusts: NA
Location:  39.3892°N, 119.693°W
Report Text: KRNO 251055Z 19009KT 10SM BKN200 16/M06 A2992 RMK AO2 SLP080 T01561056
Loading
Personal Weather Stations






























Interactive Weather Map
Tropical Storm Tracking
New forecast layout! Learn more

10-Day Weather Forecast

Advertisements
Track Severe Weather on mobile